sensor_id;sensor_type;location;lat;lon;timestamp;pressure;altitude;pressure_sealevel;temperature;humidity
27613;BME280;15036;48.094;-1.690;2023-05-21T00:02:08;101225.59;;;19.27;46.00
27613;BME280;15036;48.094;-1.690;2023-05-21T00:04:38;101221.97;;;19.38;45.70
27613;BME280;15036;48.094;-1.690;2023-05-21T00:07:05;101225.84;;;19.14;46.38
27613;BME280;15036;48.094;-1.690;2023-05-21T00:09:30;101228.03;;;19.12;46.35
27613;BME280;15036;48.094;-1.690;2023-05-21T00:11:56;101220.91;;;19.67;44.99
27613;BME280;15036;48.094;-1.690;2023-05-21T00:14:21;101227.28;;;19.28;45.91
27613;BME280;15036;48.094;-1.690;2023-05-21T00:16:47;101222.41;;;19.58;45.42
27613;BME280;15036;48.094;-1.690;2023-05-21T00:19:12;101223.59;;;19.62;45.18
27613;BME280;15036;48.094;-1.690;2023-05-21T00:21:38;101227.09;;;19.06;46.59
27613;BME280;15036;48.094;-1.690;2023-05-21T00:24:04;101222.84;;;19.27;45.98
27613;BME280;15036;48.094;-1.690;2023-05-21T00:26:29;101227.19;;;19.23;46.16
27613;BME280;15036;48.094;-1.690;2023-05-21T00:28:55;101230.34;;;19.03;46.71
27613;BME280;15036;48.094;-1.690;2023-05-21T00:31:21;101226.09;;;19.24;46.37
27613;BME280;15036;48.094;-1.690;2023-05-21T00:33:46;101222.94;;;19.32;45.81
27613;BME280;15036;48.094;-1.690;2023-05-21T00:36:11;101226.09;;;19.12;46.17
27613;BME280;15036;48.094;-1.690;2023-05-21T00:38:42;101218.66;;;19.13;46.19
27613;BME280;15036;48.094;-1.690;2023-05-21T00:41:08;101215.53;;;19.09;46.22
27613;BME280;15036;48.094;-1.690;2023-05-21T00:43:34;101198.34;;;18.84;46.96
27613;BME280;15036;48.094;-1.690;2023-05-21T00:46:00;101206.94;;;19.22;46.03
27613;BME280;15036;48.094;-1.690;2023-05-21T00:48:25;101208.00;;;19.44;45.48
27613;BME280;15036;48.094;-1.690;2023-05-21T00:50:51;101213.34;;;19.34;45.69
27613;BME280;15036;48.094;-1.690;2023-05-21T00:53:17;101207.81;;;19.23;45.94
27613;BME280;15036;48.094;-1.690;2023-05-21T00:55:44;101195.09;;;18.98;46.45
27613;BME280;15036;48.094;-1.690;2023-05-21T00:58:10;101196.53;;;19.01;46.37
27613;BME280;15036;48.094;-1.690;2023-05-21T01:00:36;101191.94;;;19.07;46.44
27613;BME280;15036;48.094;-1.690;2023-05-21T01:03:07;101189.84;;;18.85;46.57
27613;BME280;15036;48.094;-1.690;2023-05-21T01:05:34;101191.50;;;18.86;46.53
27613;BME280;15036;48.094;-1.690;2023-05-21T01:08:00;101190.66;;;18.86;46.22
27613;BME280;15036;48.094;-1.690;2023-05-21T01:10:26;101197.50;;;19.07;46.01
27613;BME280;15036;48.094;-1.690;2023-05-21T01:12:54;101194.38;;;18.80;46.77
27613;BME280;15036;48.094;-1.690;2023-05-21T01:15:21;101191.09;;;19.06;46.06
27613;BME280;15036;48.094;-1.690;2023-05-21T01:17:47;101189.06;;;19.01;46.06
27613;BME280;15036;48.094;-1.690;2023-05-21T01:20:14;101189.09;;;18.78;46.61
27613;BME280;15036;48.094;-1.690;2023-05-21T01:22:52;101183.84;;;18.65;47.10
27613;BME280;15036;48.094;-1.690;2023-05-21T01:25:18;101185.50;;;18.66;46.76
27613;BME280;15036;48.094;-1.690;2023-05-21T01:27:43;101190.09;;;18.49;47.41
27613;BME280;15036;48.094;-1.690;2023-05-21T01:30:09;101182.03;;;18.48;47.43
27613;BME280;15036;48.094;-1.690;2023-05-21T01:33:01;101190.06;;;18.84;46.58
27613;BME280;15036;48.094;-1.690;2023-05-21T01:35:36;101188.13;;;18.84;46.43
27613;BME280;15036;48.094;-1.690;2023-05-21T01:41:17;101188.28;;;18.66;46.88
27613;BME280;15036;48.094;-1.690;2023-05-21T01:43:44;101177.81;;;18.45;47.11
27613;BME280;15036;48.094;-1.690;2023-05-21T01:46:13;101177.56;;;18.58;46.64
27613;BME280;15036;48.094;-1.690;2023-05-21T01:48:41;101173.75;;;18.48;46.97
27613;BME280;15036;48.094;-1.690;2023-05-21T01:51:07;101174.19;;;18.22;47.28
27613;BME280;15036;48.094;-1.690;2023-05-21T01:53:33;101160.38;;;18.45;46.84
27613;BME280;15036;48.094;-1.690;2023-05-21T01:55:59;101158.47;;;18.45;46.92
27613;BME280;15036;48.094;-1.690;2023-05-21T01:58:24;101169.44;;;17.99;47.81
27613;BME280;15036;48.094;-1.690;2023-05-21T02:00:50;101173.94;;;18.35;47.19
27613;BME280;15036;48.094;-1.690;2023-05-21T02:03:16;101175.63;;;18.24;47.41
27613;BME280;15036;48.094;-1.690;2023-05-21T02:05:42;101167.53;;;17.99;47.97
27613;BME280;15036;48.094;-1.690;2023-05-21T02:08:08;101172.97;;;18.41;46.97
27613;BME280;15036;48.094;-1.690;2023-05-21T02:10:36;101177.44;;;18.30;46.72
27613;BME280;15036;48.094;-1.690;2023-05-21T02:13:02;101175.13;;;18.04;47.66
27613;BME280;15036;48.094;-1.690;2023-05-21T02:15:27;101175.38;;;18.37;47.00
27613;BME280;15036;48.094;-1.690;2023-05-21T02:17:53;101191.34;;;18.12;47.08
27613;BME280;15036;48.094;-1.690;2023-05-21T02:20:19;101183.06;;;18.24;47.05
27613;BME280;15036;48.094;-1.690;2023-05-21T02:22:47;101179.72;;;18.22;47.23
27613;BME280;15036;48.094;-1.690;2023-05-21T02:25:14;101180.69;;;17.74;48.07
27613;BME280;15036;48.094;-1.690;2023-05-21T02:27:41;101178.31;;;17.89;47.77
27613;BME280;15036;48.094;-1.690;2023-05-21T02:30:11;101178.22;;;17.96;47.33
27613;BME280;15036;48.094;-1.690;2023-05-21T02:32:37;101185.03;;;17.82;47.53
27613;BME280;15036;48.094;-1.690;2023-05-21T02:35:06;101178.22;;;17.96;47.33
27613;BME280;15036;48.094;-1.690;2023-05-21T02:37:32;101175.78;;;17.76;47.56
27613;BME280;15036;48.094;-1.690;2023-05-21T02:39:58;101171.69;;;17.79;47.58
27613;BME280;15036;48.094;-1.690;2023-05-21T02:42:25;101182.06;;;18.06;46.87
27613;BME280;15036;48.094;-1.690;2023-05-21T02:44:50;101170.91;;;17.60;48.09
27613;BME280;15036;48.094;-1.690;2023-05-21T02:47:17;101172.00;;;18.12;46.94
27613;BME280;15036;48.094;-1.690;2023-05-21T02:49:42;101170.97;;;17.83;47.83
27613;BME280;15036;48.094;-1.690;2023-05-21T02:52:07;101168.63;;;17.57;47.62
27613;BME280;15036;48.094;-1.690;2023-05-21T02:54:33;101168.63;;;17.57;48.14
27613;BME280;15036;48.094;-1.690;2023-05-21T02:56:58;101164.69;;;17.65;47.58
27613;BME280;15036;48.094;-1.690;2023-05-21T02:59:24;101171.81;;;17.72;47.84
27613;BME280;15036;48.094;-1.690;2023-05-21T03:01:49;101169.34;;;18.05;47.37
27613;BME280;15036;48.094;-1.690;2023-05-21T03:04:15;101169.94;;;17.96;47.45
27613;BME280;15036;48.094;-1.690;2023-05-21T03:06:46;101176.53;;;17.95;47.42
27613;BME280;15036;48.094;-1.690;2023-05-21T03:09:11;101175.25;;;17.68;47.64
27613;BME280;15036;48.094;-1.690;2023-05-21T03:11:37;101169.47;;;17.58;48.25
27613;BME280;15036;48.094;-1.690;2023-05-21T03:14:02;101170.59;;;17.20;48.85
27613;BME280;15036;48.094;-1.690;2023-05-21T03:16:27;101179.09;;;17.37;48.78
27613;BME280;15036;48.094;-1.690;2023-05-21T03:18:53;101184.50;;;17.44;48.60
27613;BME280;15036;48.094;-1.690;2023-05-21T03:21:19;101184.44;;;17.91;47.63
27613;BME280;15036;48.094;-1.690;2023-05-21T03:23:47;101177.53;;;18.12;47.31
27613;BME280;15036;48.094;-1.690;2023-05-21T03:26:13;101179.72;;;17.21;49.11
27613;BME280;15036;48.094;-1.690;2023-05-21T03:28:38;101178.88;;;17.02;49.62
27613;BME280;15036;48.094;-1.690;2023-05-21T03:31:04;101181.19;;;17.53;48.57
27613;BME280;15036;48.094;-1.690;2023-05-21T03:33:29;101173.59;;;17.67;48.73
27613;BME280;15036;48.094;-1.690;2023-05-21T03:35:55;101171.06;;;17.47;48.86
27613;BME280;15036;48.094;-1.690;2023-05-21T03:38:20;101176.06;;;17.09;49.93
27613;BME280;15036;48.094;-1.690;2023-05-21T03:40:45;101177.00;;;17.51;48.88
27613;BME280;15036;48.094;-1.690;2023-05-21T03:43:11;101176.53;;;17.35;49.43
27613;BME280;15036;48.094;-1.690;2023-05-21T03:45:37;101182.28;;;17.82;48.61
27613;BME280;15036;48.094;-1.690;2023-05-21T03:48:02;101184.38;;;17.20;49.81
27613;BME280;15036;48.094;-1.690;2023-05-21T03:50:28;101178.34;;;17.60;49.23
27613;BME280;15036;48.094;-1.690;2023-05-21T03:52:53;101185.13;;;17.75;48.89
27613;BME280;15036;48.094;-1.690;2023-05-21T03:55:18;101192.97;;;17.30;49.81
27613;BME280;15036;48.094;-1.690;2023-05-21T03:57:44;101188.97;;;17.74;49.22
27613;BME280;15036;48.094;-1.690;2023-05-21T04:00:10;101179.16;;;17.90;48.38
27613;BME280;15036;48.094;-1.690;2023-05-21T04:02:35;101194.22;;;17.16;50.60
27613;BME280;15036;48.094;-1.690;2023-05-21T04:05:00;101189.56;;;17.47;49.81
27613;BME280;15036;48.094;-1.690;2023-05-21T04:07:26;101188.44;;;17.95;48.61
27613;BME280;15036;48.094;-1.690;2023-05-21T04:09:52;101186.88;;;17.99;48.37
27613;BME280;15036;48.094;-1.690;2023-05-21T04:12:17;101196.00;;;17.59;49.37
27613;BME280;15036;48.094;-1.690;2023-05-21T04:14:44;101195.19;;;17.22;50.50
27613;BME280;15036;48.094;-1.690;2023-05-21T04:17:10;101200.94;;;17.20;50.73
27613;BME280;15036;48.094;-1.690;2023-05-21T04:19:37;101195.00;;;17.53;49.87
27613;BME280;15036;48.094;-1.690;2023-05-21T04:22:03;101193.03;;;17.72;49.54
27613;BME280;15036;48.094;-1.690;2023-05-21T04:24:29;101191.28;;;17.11;50.54
27613;BME280;15036;48.094;-1.690;2023-05-21T04:26:54;101204.34;;;17.70;49.54
27613;BME280;15036;48.094;-1.690;2023-05-21T04:29:20;101192.97;;;17.12;50.85
27613;BME280;15036;48.094;-1.690;2023-05-21T04:31:49;101195.44;;;16.84;52.04
27613;BME280;15036;48.094;-1.690;2023-05-21T04:34:15;101193.28;;;16.86;52.00
27613;BME280;15036;48.094;-1.690;2023-05-21T04:36:44;101185.91;;;17.34;50.93
27613;BME280;15036;48.094;-1.690;2023-05-21T04:39:11;101183.47;;;17.08;51.74
27613;BME280;15036;48.094;-1.690;2023-05-21T04:41:37;101192.81;;;17.25;51.70
27613;BME280;15036;48.094;-1.690;2023-05-21T04:44:06;101200.03;;;16.90;52.64
27613;BME280;15036;48.094;-1.690;2023-05-21T04:46:32;101195.34;;;17.27;51.88
27613;BME280;15036;48.094;-1.690;2023-05-21T04:48:59;101193.28;;;16.86;53.14
27613;BME280;15036;48.094;-1.690;2023-05-21T04:51:27;101188.34;;;17.43;51.50
27613;BME280;15036;48.094;-1.690;2023-05-21T04:53:52;101186.81;;;17.47;51.12
27613;BME280;15036;48.094;-1.690;2023-05-21T04:56:18;101186.03;;;16.74;53.33
27613;BME280;15036;48.094;-1.690;2023-05-21T04:58:44;101193.28;;;16.86;53.36
27613;BME280;15036;48.094;-1.690;2023-05-21T05:01:14;101193.34;;;16.80;53.55
27613;BME280;15036;48.094;-1.690;2023-05-21T05:03:39;101194.19;;;17.34;52.25
27613;BME280;15036;48.094;-1.690;2023-05-21T05:06:05;101194.75;;;17.25;52.20
27613;BME280;15036;48.094;-1.690;2023-05-21T05:08:32;101193.06;;;17.06;52.95
27613;BME280;15036;48.094;-1.690;2023-05-21T05:10:58;101194.22;;;17.16;52.99
27613;BME280;15036;48.094;-1.690;2023-05-21T05:13:23;101197.41;;;17.13;53.13
27613;BME280;15036;48.094;-1.690;2023-05-21T05:15:48;101197.41;;;17.31;53.06
27613;BME280;15036;48.094;-1.690;2023-05-21T05:18:14;101207.38;;;16.96;53.66
27613;BME280;15036;48.094;-1.690;2023-05-21T05:20:40;101198.56;;;17.24;53.53
27613;BME280;15036;48.094;-1.690;2023-05-21T05:23:05;101199.59;;;16.93;54.42
27613;BME280;15036;48.094;-1.690;2023-05-21T05:25:31;101195.47;;;17.32;53.40
27613;BME280;15036;48.094;-1.690;2023-05-21T05:27:57;101199.94;;;17.33;53.16
27613;BME280;15036;48.094;-1.690;2023-05-21T05:30:22;101192.91;;;17.19;53.49
27613;BME280;15036;48.094;-1.690;2023-05-21T05:32:49;101198.50;;;17.12;53.83
27613;BME280;15036;48.094;-1.690;2023-05-21T05:35:14;101199.13;;;16.96;54.55
27613;BME280;15036;48.094;-1.690;2023-05-21T05:37:39;101189.78;;;16.97;54.78
27613;BME280;15036;48.094;-1.690;2023-05-21T05:40:06;101186.72;;;17.53;53.24
27613;BME280;15036;48.094;-1.690;2023-05-21T05:42:32;101197.16;;;17.51;52.77
27613;BME280;15036;48.094;-1.690;2023-05-21T05:44:57;101192.28;;;17.35;53.55
27613;BME280;15036;48.094;-1.690;2023-05-21T05:47:23;101188.31;;;17.90;52.41
27613;BME280;15036;48.094;-1.690;2023-05-21T05:49:48;101200.09;;;18.09;51.75
27613;BME280;15036;48.094;-1.690;2023-05-21T05:52:13;101194.19;;;17.53;52.97
27613;BME280;15036;48.094;-1.690;2023-05-21T05:54:39;101194.59;;;18.20;51.89
27613;BME280;15036;48.094;-1.690;2023-05-21T05:57:04;101197.06;;;17.87;52.09
27613;BME280;15036;48.094;-1.690;2023-05-21T05:59:30;101205.41;;;17.69;53.11
27613;BME280;15036;48.094;-1.690;2023-05-21T06:01:58;101200.00;;;17.63;53.36
27613;BME280;15036;48.094;-1.690;2023-05-21T06:04:26;101204.56;;;17.69;53.31
27613;BME280;15036;48.094;-1.690;2023-05-21T06:06:54;101196.28;;;18.33;51.61
27613;BME280;15036;48.094;-1.690;2023-05-21T06:09:22;101196.81;;;17.89;52.58
27613;BME280;15036;48.094;-1.690;2023-05-21T06:11:47;101188.81;;;18.10;52.42
27613;BME280;15036;48.094;-1.690;2023-05-21T06:14:12;101184.63;;;18.08;52.51
27613;BME280;15036;48.094;-1.690;2023-05-21T06:16:38;101190.16;;;18.31;52.25
27613;BME280;15036;48.094;-1.690;2023-05-21T06:19:03;101192.81;;;18.26;52.25
27613;BME280;15036;48.094;-1.690;2023-05-21T06:21:28;101198.78;;;18.00;53.10
27613;BME280;15036;48.094;-1.690;2023-05-21T06:24:03;101207.25;;;17.57;54.29
27613;BME280;15036;48.094;-1.690;2023-05-21T06:26:28;101201.53;;;17.59;54.24
27613;BME280;15036;48.094;-1.690;2023-05-21T06:28:54;101193.28;;;18.35;52.59
27613;BME280;15036;48.094;-1.690;2023-05-21T06:31:19;101198.72;;;18.41;52.35
27613;BME280;15036;48.094;-1.690;2023-05-21T06:33:47;101198.53;;;18.66;52.00
27613;BME280;15036;48.094;-1.690;2023-05-21T06:36:13;101203.31;;;18.47;52.32
27613;BME280;15036;48.094;-1.690;2023-05-21T06:38:39;101211.66;;;18.17;52.81
27613;BME280;15036;48.094;-1.690;2023-05-21T06:41:05;101200.78;;;17.93;53.91
27613;BME280;15036;48.094;-1.690;2023-05-21T06:43:30;101211.28;;;17.73;54.75
27613;BME280;15036;48.094;-1.690;2023-05-21T06:45:56;101216.53;;;18.80;51.81
27613;BME280;15036;48.094;-1.690;2023-05-21T06:48:21;101215.19;;;18.82;51.89
27613;BME280;15036;48.094;-1.690;2023-05-21T06:50:46;101211.13;;;18.85;51.61
27613;BME280;15036;48.094;-1.690;2023-05-21T06:53:12;101224.34;;;18.83;51.51
27613;BME280;15036;48.094;-1.690;2023-05-21T06:55:40;101214.38;;;18.70;52.18
27613;BME280;15036;48.094;-1.690;2023-05-21T06:58:09;101207.00;;;18.41;52.92
27613;BME280;15036;48.094;-1.690;2023-05-21T07:00:34;101211.72;;;18.87;52.09
27613;BME280;15036;48.094;-1.690;2023-05-21T07:03:00;101213.63;;;18.86;51.81
27613;BME280;15036;48.094;-1.690;2023-05-21T07:05:25;101210.03;;;18.51;53.10
27613;BME280;15036;48.094;-1.690;2023-05-21T07:07:50;101203.47;;;19.27;51.53
27613;BME280;15036;48.094;-1.690;2023-05-21T07:10:16;101209.03;;;19.03;51.69
27613;BME280;15036;48.094;-1.690;2023-05-21T07:12:41;101215.25;;;19.22;50.88
27613;BME280;15036;48.094;-1.690;2023-05-21T07:15:07;101209.53;;;19.52;50.66
27613;BME280;15036;48.094;-1.690;2023-05-21T07:17:33;101212.69;;;19.44;51.24
27613;BME280;15036;48.094;-1.690;2023-05-21T07:19:58;101211.53;;;19.17;51.63
27613;BME280;15036;48.094;-1.690;2023-05-21T07:22:24;101194.41;;;18.91;52.74
27613;BME280;15036;48.094;-1.690;2023-05-21T07:24:49;101200.00;;;19.08;52.03
27613;BME280;15036;48.094;-1.690;2023-05-21T07:27:14;101200.09;;;19.25;51.59
27613;BME280;15036;48.094;-1.690;2023-05-21T07:29:40;101204.81;;;19.13;51.80
27613;BME280;15036;48.094;-1.690;2023-05-21T07:32:05;101201.94;;;18.38;54.53
27613;BME280;15036;48.094;-1.690;2023-05-21T07:34:30;101208.84;;;18.70;53.49
27613;BME280;15036;48.094;-1.690;2023-05-21T07:36:57;101210.19;;;19.31;52.20
27613;BME280;15036;48.094;-1.690;2023-05-21T07:39:22;101207.88;;;19.39;52.06
27613;BME280;15036;48.094;-1.690;2023-05-21T07:41:47;101206.09;;;19.45;52.07
27613;BME280;15036;48.094;-1.690;2023-05-21T07:44:13;101202.94;;;19.41;52.59
27613;BME280;15036;48.094;-1.690;2023-05-21T07:46:38;101201.22;;;19.52;51.72
27613;BME280;15036;48.094;-1.690;2023-05-21T07:49:03;101204.13;;;19.57;51.84
27613;BME280;15036;48.094;-1.690;2023-05-21T07:51:29;101204.28;;;19.67;51.31
27613;BME280;15036;48.094;-1.690;2023-05-21T07:53:55;101199.94;;;20.16;50.42
27613;BME280;15036;48.094;-1.690;2023-05-21T07:56:21;101205.03;;;20.07;50.72
27613;BME280;15036;48.094;-1.690;2023-05-21T07:58:47;101193.38;;;19.88;51.16
27613;BME280;15036;48.094;-1.690;2023-05-21T08:01:12;101205.56;;;19.48;51.99
27613;BME280;15036;48.094;-1.690;2023-05-21T08:03:38;101203.59;;;19.60;52.08
27613;BME280;15036;48.094;-1.690;2023-05-21T08:06:03;101197.06;;;19.66;51.98
27613;BME280;15036;48.094;-1.690;2023-05-21T08:08:29;101192.56;;;19.48;52.34
27613;BME280;15036;48.094;-1.690;2023-05-21T08:10:54;101190.09;;;20.08;51.39
27613;BME280;15036;48.094;-1.690;2023-05-21T08:13:20;101182.88;;;20.57;50.17
27613;BME280;15036;48.094;-1.690;2023-05-21T08:15:46;101192.97;;;20.46;50.12
27613;BME280;15036;48.094;-1.690;2023-05-21T08:18:12;101195.31;;;20.71;49.62
27613;BME280;15036;48.094;-1.690;2023-05-21T08:20:37;101189.06;;;20.81;49.55
27613;BME280;15036;48.094;-1.690;2023-05-21T08:23:03;101189.00;;;20.76;49.38
27613;BME280;15036;48.094;-1.690;2023-05-21T08:25:28;101192.38;;;20.44;50.23
27613;BME280;15036;48.094;-1.690;2023-05-21T08:27:54;101194.66;;;20.31;50.53
27613;BME280;15036;48.094;-1.690;2023-05-21T08:30:19;101197.63;;;20.24;50.84
27613;BME280;15036;48.094;-1.690;2023-05-21T08:32:46;101196.72;;;20.07;51.24
27613;BME280;15036;48.094;-1.690;2023-05-21T08:35:11;101198.97;;;19.49;52.81
27613;BME280;15036;48.094;-1.690;2023-05-21T08:37:36;101196.94;;;19.72;52.66
27613;BME280;15036;48.094;-1.690;2023-05-21T08:40:02;101194.56;;;19.64;52.81
27613;BME280;15036;48.094;-1.690;2023-05-21T08:44:58;101190.13;;;20.25;51.09
27613;BME280;15036;48.094;-1.690;2023-05-21T08:47:25;101202.34;;;19.96;52.27
27613;BME280;15036;48.094;-1.690;2023-05-21T08:49:54;101196.94;;;20.34;51.26
27613;BME280;15036;48.094;-1.690;2023-05-21T08:52:20;101200.72;;;19.83;52.72
27613;BME280;15036;48.094;-1.690;2023-05-21T08:54:46;101203.06;;;20.19;51.85
27613;BME280;15036;48.094;-1.690;2023-05-21T08:57:16;101199.69;;;20.50;51.24
27613;BME280;15036;48.094;-1.690;2023-05-21T08:59:43;101192.63;;;21.14;50.10
27613;BME280;15036;48.094;-1.690;2023-05-21T09:02:12;101181.69;;;21.29;49.36
27613;BME280;15036;48.094;-1.690;2023-05-21T09:04:42;101178.34;;;21.49;48.93
27613;BME280;15036;48.094;-1.690;2023-05-21T09:07:13;101175.50;;;21.71;47.83
27613;BME280;15036;48.094;-1.690;2023-05-21T09:09:44;101177.25;;;21.28;49.11
27613;BME280;15036;48.094;-1.690;2023-05-21T09:12:11;101167.47;;;21.47;48.67
27613;BME280;15036;48.094;-1.690;2023-05-21T09:14:37;101161.22;;;21.84;47.88
27613;BME280;15036;48.094;-1.690;2023-05-21T09:17:03;101167.09;;;21.66;48.49
27613;BME280;15036;48.094;-1.690;2023-05-21T09:19:28;101157.69;;;21.67;48.73
27613;BME280;15036;48.094;-1.690;2023-05-21T09:22:01;101159.19;;;21.52;49.19
27613;BME280;15036;48.094;-1.690;2023-05-21T09:24:29;101152.94;;;21.67;48.78
27613;BME280;15036;48.094;-1.690;2023-05-21T09:26:59;101146.06;;;21.48;48.99
27613;BME280;15036;48.094;-1.690;2023-05-21T09:29:25;101150.84;;;21.04;49.95
27613;BME280;15036;48.094;-1.690;2023-05-21T09:31:50;101159.38;;;21.46;49.26
27613;BME280;15036;48.094;-1.690;2023-05-21T09:34:16;101163.47;;;21.38;49.48
27613;BME280;15036;48.094;-1.690;2023-05-21T09:36:41;101158.34;;;22.05;48.43
27613;BME280;15036;48.094;-1.690;2023-05-21T09:39:08;101152.28;;;22.08;48.29
27613;BME280;15036;48.094;-1.690;2023-05-21T09:41:36;101150.59;;;22.07;48.14
27613;BME280;15036;48.094;-1.690;2023-05-21T09:44:01;101147.31;;;22.15;48.41
27613;BME280;15036;48.094;-1.690;2023-05-21T09:46:36;101155.31;;;22.43;47.24
27613;BME280;15036;48.094;-1.690;2023-05-21T09:49:02;101155.50;;;22.64;46.90
27613;BME280;15036;48.094;-1.690;2023-05-21T09:51:27;101154.63;;;22.26;47.13
27613;BME280;15036;48.094;-1.690;2023-05-21T09:53:55;101145.44;;;22.58;46.67
27613;BME280;15036;48.094;-1.690;2023-05-21T09:56:25;101145.97;;;23.06;45.69
27613;BME280;15036;48.094;-1.690;2023-05-21T09:59:02;101146.16;;;22.85;45.60
27613;BME280;15036;48.094;-1.690;2023-05-21T10:01:31;101148.25;;;23.19;45.34
27613;BME280;15036;48.094;-1.690;2023-05-21T10:04:03;101137.84;;;23.92;44.45
27613;BME280;15036;48.094;-1.690;2023-05-21T10:06:30;101135.66;;;24.09;43.95
27613;BME280;15036;48.094;-1.690;2023-05-21T10:08:59;101155.97;;;23.74;43.78
27613;BME280;15036;48.094;-1.690;2023-05-21T10:11:29;101139.72;;;23.41;44.57
27613;BME280;15036;48.094;-1.690;2023-05-21T10:14:06;101154.59;;;23.05;45.45
27613;BME280;15036;48.094;-1.690;2023-05-21T10:16:34;101144.72;;;23.34;45.39
27613;BME280;15036;48.094;-1.690;2023-05-21T10:18:59;101161.00;;;23.82;44.49
27613;BME280;15036;48.094;-1.690;2023-05-21T10:21:25;101157.09;;;23.88;44.06
27613;BME280;15036;48.094;-1.690;2023-05-21T10:23:52;101147.69;;;24.04;43.63
27613;BME280;15036;48.094;-1.690;2023-05-21T10:26:18;101150.13;;;23.86;44.77
27613;BME280;15036;48.094;-1.690;2023-05-21T10:28:45;101152.13;;;24.26;43.56
27613;BME280;15036;48.094;-1.690;2023-05-21T10:31:11;101161.53;;;23.79;44.29
27613;BME280;15036;48.094;-1.690;2023-05-21T10:33:37;101155.94;;;23.69;44.62
27613;BME280;15036;48.094;-1.690;2023-05-21T10:36:03;101164.53;;;23.48;45.72
27613;BME280;15036;48.094;-1.690;2023-05-21T10:38:30;101164.31;;;23.69;44.88
27613;BME280;15036;48.094;-1.690;2023-05-21T10:40:56;101146.53;;;24.00;44.50
27613;BME280;15036;48.094;-1.690;2023-05-21T10:52:02;101145.41;;;24.42;43.24
27613;BME280;15036;48.094;-1.690;2023-05-21T10:59:56;101145.97;;;24.39;43.56
27613;BME280;15036;48.094;-1.690;2023-05-21T11:02:25;101147.94;;;24.08;43.84
27613;BME280;15036;48.094;-1.690;2023-05-21T11:05:00;101141.47;;;23.97;44.00
27613;BME280;15036;48.094;-1.690;2023-05-21T11:08:01;101140.56;;;23.37;45.60
27613;BME280;15036;48.094;-1.690;2023-05-21T11:10:30;101145.41;;;24.42;43.77
27613;BME280;15036;48.094;-1.690;2023-05-21T11:13:14;101139.28;;;24.40;43.65
27613;BME280;15036;48.094;-1.690;2023-05-21T11:21:17;101142.66;;;25.31;41.67
27613;BME280;15036;48.094;-1.690;2023-05-21T11:26:24;101144.34;;;25.22;41.46
27613;BME280;15036;48.094;-1.690;2023-05-21T11:29:06;101146.41;;;24.96;42.13
27613;BME280;15036;48.094;-1.690;2023-05-21T11:31:32;101137.13;;;25.16;41.89
27613;BME280;15036;48.094;-1.690;2023-05-21T11:34:18;101141.50;;;25.32;41.47
27613;BME280;15036;48.094;-1.690;2023-05-21T11:36:47;101133.41;;;25.40;41.52
27613;BME280;15036;48.094;-1.690;2023-05-21T11:39:17;101129.38;;;25.95;40.36
27613;BME280;15036;48.094;-1.690;2023-05-21T11:41:59;101137.88;;;26.24;39.51
27613;BME280;15036;48.094;-1.690;2023-05-21T11:47:10;101134.47;;;25.49;40.96
27613;BME280;15036;48.094;-1.690;2023-05-21T11:49:37;101123.13;;;26.13;40.00
27613;BME280;15036;48.094;-1.690;2023-05-21T11:52:04;101123.31;;;25.83;40.55
27613;BME280;15036;48.094;-1.690;2023-05-21T11:54:30;101119.22;;;26.67;39.04
27613;BME280;15036;48.094;-1.690;2023-05-21T11:56:58;101118.91;;;26.16;39.54
27613;BME280;15036;48.094;-1.690;2023-05-21T11:59:24;101125.56;;;26.48;39.21
27613;BME280;15036;48.094;-1.690;2023-05-21T12:01:50;101114.09;;;26.21;39.67
27613;BME280;15036;48.094;-1.690;2023-05-21T12:04:15;101132.69;;;25.63;40.79
27613;BME280;15036;48.094;-1.690;2023-05-21T12:06:44;101124.81;;;26.72;39.37
27613;BME280;15036;48.094;-1.690;2023-05-21T12:09:09;101130.00;;;26.26;39.94
27613;BME280;15036;48.094;-1.690;2023-05-21T12:11:37;101127.53;;;27.00;38.76
27613;BME280;15036;48.094;-1.690;2023-05-21T12:14:09;101117.94;;;27.06;38.40
27613;BME280;15036;48.094;-1.690;2023-05-21T12:16:35;101120.06;;;27.75;36.90
27613;BME280;15036;48.094;-1.690;2023-05-21T12:19:02;101115.63;;;27.13;37.76
27613;BME280;15036;48.094;-1.690;2023-05-21T12:21:28;101121.66;;;27.81;37.39
27613;BME280;15036;48.094;-1.690;2023-05-21T12:23:55;101123.56;;;27.49;37.73
27613;BME280;15036;48.094;-1.690;2023-05-21T12:26:21;101113.94;;;27.55;37.53
27613;BME280;15036;48.094;-1.690;2023-05-21T12:28:50;101123.78;;;26.86;39.26
27613;BME280;15036;48.094;-1.690;2023-05-21T12:31:16;101123.97;;;27.61;37.22
27613;BME280;15036;48.094;-1.690;2023-05-21T12:33:47;101120.25;;;27.23;38.34
27613;BME280;15036;48.094;-1.690;2023-05-21T12:36:26;101116.56;;;26.80;38.73
27613;BME280;15036;48.094;-1.690;2023-05-21T12:38:52;101111.06;;;26.13;40.20
27613;BME280;15036;48.094;-1.690;2023-05-21T12:41:17;101106.31;;;26.71;39.23
27613;BME280;15036;48.094;-1.690;2023-05-21T12:43:43;101111.53;;;26.53;39.20
27613;BME280;15036;48.094;-1.690;2023-05-21T12:46:11;101105.69;;;27.44;38.14
27613;BME280;15036;48.094;-1.690;2023-05-21T12:48:47;101104.72;;;27.35;38.02
27613;BME280;15036;48.094;-1.690;2023-05-21T12:51:12;101085.09;;;27.86;36.69
27613;BME280;15036;48.094;-1.690;2023-05-21T12:53:40;101099.75;;;27.83;36.98
27613;BME280;15036;48.094;-1.690;2023-05-21T12:56:13;101093.50;;;28.05;36.76
27613;BME280;15036;48.094;-1.690;2023-05-21T12:58:39;101097.63;;;28.12;36.65
27613;BME280;15036;48.094;-1.690;2023-05-21T13:01:09;101090.78;;;28.78;35.95
27613;BME280;15036;48.094;-1.690;2023-05-21T13:03:36;101101.25;;;29.40;34.24
27613;BME280;15036;48.094;-1.690;2023-05-21T13:06:02;101094.84;;;28.26;35.46
27613;BME280;15036;48.094;-1.690;2023-05-21T13:08:29;101094.44;;;28.33;35.59
27613;BME280;15036;48.094;-1.690;2023-05-21T13:10:55;101096.13;;;28.47;34.88